sensor_id;sensor_type;location;lat;lon;timestamp;pressure;altitude;pressure_sealevel;temperature;humidity
63097;BME280;49185;42.320;23.198;2023-04-10T00:00:48;94913.25;;;3.94;93.20
63097;BME280;49185;42.320;23.198;2023-04-10T00:03:14;94899.06;;;3.82;94.07
63097;BME280;49185;42.320;23.198;2023-04-10T00:05:39;94904.94;;;3.84;93.90
63097;BME280;49185;42.320;23.198;2023-04-10T00:08:05;94899.09;;;3.75;94.07
63097;BME280;49185;42.320;23.198;2023-04-10T00:10:30;94894.81;;;3.68;93.90
63097;BME280;49185;42.320;23.198;2023-04-10T00:12:56;94890.16;;;3.70;94.22
63097;BME280;49185;42.320;23.198;2023-04-10T00:15:21;94894.63;;;3.76;93.86
63097;BME280;49185;42.320;23.198;2023-04-10T00:17:47;94887.56;;;3.83;92.51
63097;BME280;49185;42.320;23.198;2023-04-10T00:20:12;94880.66;;;3.89;90.39
63097;BME280;49185;42.320;23.198;2023-04-10T00:22:38;94882.09;;;3.85;87.53
63097;BME280;49185;42.320;23.198;2023-04-10T00:25:04;94882.28;;;3.90;86.41
63097;BME280;49185;42.320;23.198;2023-04-10T00:27:29;94874.97;;;4.18;84.30
63097;BME280;49185;42.320;23.198;2023-04-10T00:29:55;94877.00;;;4.10;84.72
63097;BME280;49185;42.320;23.198;2023-04-10T00:32:20;94865.63;;;4.36;79.70
63097;BME280;49185;42.320;23.198;2023-04-10T00:34:45;94866.50;;;4.82;74.57
63097;BME280;49185;42.320;23.198;2023-04-10T00:37:11;94862.31;;;5.12;73.26
63097;BME280;49185;42.320;23.198;2023-04-10T00:39:36;94851.34;;;5.16;71.26
63097;BME280;49185;42.320;23.198;2023-04-10T00:42:02;94844.31;;;5.35;70.30
63097;BME280;49185;42.320;23.198;2023-04-10T00:44:27;94836.13;;;5.18;70.86
63097;BME280;49185;42.320;23.198;2023-04-10T00:46:52;94830.84;;;5.18;70.84
63097;BME280;49185;42.320;23.198;2023-04-10T00:49:18;94833.16;;;5.32;70.00
63097;BME280;49185;42.320;23.198;2023-04-10T00:51:43;94841.44;;;5.43;69.40
63097;BME280;49185;42.320;23.198;2023-04-10T00:54:09;94833.94;;;5.40;69.44
63097;BME280;49185;42.320;23.198;2023-04-10T00:56:35;94832.31;;;5.39;69.14
63097;BME280;49185;42.320;23.198;2023-04-10T00:59:02;94831.41;;;5.26;69.78
63097;BME280;49185;42.320;23.198;2023-04-10T01:01:27;94831.56;;;5.31;69.08
63097;BME280;49185;42.320;23.198;2023-04-10T01:03:53;94825.81;;;5.41;68.52
63097;BME280;49185;42.320;23.198;2023-04-10T01:09:57;94830.69;;;5.38;68.41
63097;BME280;49185;42.320;23.198;2023-04-10T01:15:09;94820.06;;;5.51;67.17
63097;BME280;49185;42.320;23.198;2023-04-10T01:22:35;94818.97;;;5.33;67.41
63097;BME280;49185;42.320;23.198;2023-04-10T01:27:42;94815.63;;;5.45;67.01
63097;BME280;49185;42.320;23.198;2023-04-10T01:30:11;94809.75;;;5.43;66.66
63097;BME280;49185;42.320;23.198;2023-04-10T01:32:40;94804.25;;;5.51;66.00
63097;BME280;49185;42.320;23.198;2023-04-10T01:35:07;94807.25;;;5.55;65.84
63097;BME280;49185;42.320;23.198;2023-04-10T01:37:37;94810.84;;;5.60;65.43
63097;BME280;49185;42.320;23.198;2023-04-10T01:40:08;94804.66;;;5.48;65.43
63097;BME280;49185;42.320;23.198;2023-04-10T01:42:38;94810.72;;;5.48;65.58
63097;BME280;49185;42.320;23.198;2023-04-10T01:45:07;94818.03;;;5.53;65.70
63097;BME280;49185;42.320;23.198;2023-04-10T01:47:35;94818.19;;;5.58;65.61
63097;BME280;49185;42.320;23.198;2023-04-10T01:50:02;94814.19;;;5.49;66.13
63097;BME280;49185;42.320;23.198;2023-04-10T01:52:29;94807.63;;;5.33;66.77
63097;BME280;49185;42.320;23.198;2023-04-10T01:54:56;94817.34;;;5.58;65.99
63097;BME280;49185;42.320;23.198;2023-04-10T01:57:23;94818.34;;;5.63;65.82
63097;BME280;49185;42.320;23.198;2023-04-10T01:59:48;94818.56;;;5.62;66.19
63097;BME280;49185;42.320;23.198;2023-04-10T02:02:14;94827.53;;;5.54;66.23
63097;BME280;49185;42.320;23.198;2023-04-10T02:04:39;94824.00;;;5.67;64.58
63097;BME280;49185;42.320;23.198;2023-04-10T02:07:13;94821.53;;;5.72;64.97
63097;BME280;49185;42.320;23.198;2023-04-10T02:09:56;94809.78;;;5.68;64.81
63097;BME280;49185;42.320;23.198;2023-04-10T02:14:54;94814.53;;;5.84;64.30
63097;BME280;49185;42.320;23.198;2023-04-10T02:17:25;94810.69;;;5.80;64.80
63097;BME280;49185;42.320;23.198;2023-04-10T02:19:53;94810.03;;;5.85;63.83
63097;BME280;49185;42.320;23.198;2023-04-10T02:22:20;94814.78;;;5.76;64.99
63097;BME280;49185;42.320;23.198;2023-04-10T02:24:45;94814.78;;;5.76;64.24
63097;BME280;49185;42.320;23.198;2023-04-10T02:27:11;94810.34;;;5.70;64.53
63097;BME280;49185;42.320;23.198;2023-04-10T02:29:36;94805.31;;;5.68;65.08
63097;BME280;49185;42.320;23.198;2023-04-10T02:32:02;94806.50;;;5.73;64.73
63097;BME280;49185;42.320;23.198;2023-04-10T02:34:28;94803.28;;;5.70;64.93
63097;BME280;49185;42.320;23.198;2023-04-10T02:36:54;94804.44;;;5.75;64.87
63097;BME280;49185;42.320;23.198;2023-04-10T02:39:19;94800.63;;;5.70;64.54
63097;BME280;49185;42.320;23.198;2023-04-10T02:41:44;94802.34;;;5.58;65.38
63097;BME280;49185;42.320;23.198;2023-04-10T02:44:10;94813.34;;;5.55;64.47
63097;BME280;49185;42.320;23.198;2023-04-10T02:46:35;94796.88;;;5.60;63.83
63097;BME280;49185;42.320;23.198;2023-04-10T02:49:00;94800.88;;;5.62;63.08
63097;BME280;49185;42.320;23.198;2023-04-10T02:51:26;94800.84;;;5.69;63.09
63097;BME280;49185;42.320;23.198;2023-04-10T02:53:51;94799.72;;;5.58;64.19
63097;BME280;49185;42.320;23.198;2023-04-10T02:56:17;94814.66;;;5.39;64.30
63097;BME280;49185;42.320;23.198;2023-04-10T02:58:42;94802.19;;;5.53;63.52
63097;BME280;49185;42.320;23.198;2023-04-10T03:01:08;94810.47;;;5.57;63.17
63097;BME280;49185;42.320;23.198;2023-04-10T03:03:33;94815.53;;;5.58;63.23
63097;BME280;49185;42.320;23.198;2023-04-10T03:05:59;94800.84;;;5.44;63.65
63097;BME280;49185;42.320;23.198;2023-04-10T03:08:24;94804.31;;;5.38;63.76
63097;BME280;49185;42.320;23.198;2023-04-10T03:10:49;94805.47;;;5.48;63.45
63097;BME280;49185;42.320;23.198;2023-04-10T03:13:15;94811.25;;;5.32;64.59
63097;BME280;49185;42.320;23.198;2023-04-10T03:15:41;94811.81;;;5.41;64.06
63097;BME280;49185;42.320;23.198;2023-04-10T03:18:07;94811.06;;;5.33;64.73
63097;BME280;49185;42.320;23.198;2023-04-10T03:20:32;94808.75;;;5.44;64.36
63097;BME280;49185;42.320;23.198;2023-04-10T03:22:58;94803.72;;;5.36;64.69
63097;BME280;49185;42.320;23.198;2023-04-10T03:25:24;94809.00;;;5.36;64.01
63097;BME280;49185;42.320;23.198;2023-04-10T03:27:50;94812.22;;;5.38;64.47
63097;BME280;49185;42.320;23.198;2023-04-10T03:30:16;94808.59;;;5.39;64.63
63097;BME280;49185;42.320;23.198;2023-04-10T03:32:42;94806.28;;;5.49;63.64
63097;BME280;49185;42.320;23.198;2023-04-10T03:35:08;94807.28;;;5.48;63.52
63097;BME280;49185;42.320;23.198;2023-04-10T03:37:34;94799.81;;;5.45;63.84
63097;BME280;49185;42.320;23.198;2023-04-10T03:39:59;94799.97;;;5.50;63.99
63097;BME280;49185;42.320;23.198;2023-04-10T03:42:25;94806.13;;;5.44;64.19
63097;BME280;49185;42.320;23.198;2023-04-10T03:44:50;94804.50;;;5.43;64.26
63097;BME280;49185;42.320;23.198;2023-04-10T03:47:15;94801.22;;;5.47;63.64
63097;BME280;49185;42.320;23.198;2023-04-10T03:49:41;94800.84;;;5.44;63.70
63097;BME280;49185;42.320;23.198;2023-04-10T03:52:06;94799.00;;;5.44;63.66
63097;BME280;49185;42.320;23.198;2023-04-10T03:54:32;94802.28;;;5.40;64.14
63097;BME280;49185;42.320;23.198;2023-04-10T03:56:57;94796.16;;;5.46;63.90
63097;BME280;49185;42.320;23.198;2023-04-10T03:59:23;94812.03;;;5.39;63.65
63097;BME280;49185;42.320;23.198;2023-04-10T04:01:48;94812.94;;;5.51;63.77
63097;BME280;49185;42.320;23.198;2023-04-10T04:04:14;94812.16;;;5.19;64.91
63097;BME280;49185;42.320;23.198;2023-04-10T04:06:40;94808.88;;;5.24;64.70
63097;BME280;49185;42.320;23.198;2023-04-10T04:09:05;94809.78;;;5.11;65.68
63097;BME280;49185;42.320;23.198;2023-04-10T04:11:30;94811.09;;;4.88;66.33
63097;BME280;49185;42.320;23.198;2023-04-10T04:13:56;94811.97;;;4.75;66.97
63097;BME280;49185;42.320;23.198;2023-04-10T04:16:21;94814.06;;;5.37;65.23
63097;BME280;49185;42.320;23.198;2023-04-10T04:18:47;94809.31;;;4.89;67.40
63097;BME280;49185;42.320;23.198;2023-04-10T04:21:12;94817.03;;;4.84;66.74
63097;BME280;49185;42.320;23.198;2023-04-10T04:23:37;94816.38;;;4.88;67.68
63097;BME280;49185;42.320;23.198;2023-04-10T04:26:03;94814.41;;;4.77;67.65
63097;BME280;49185;42.320;23.198;2023-04-10T04:28:28;94810.25;;;5.01;65.56
63097;BME280;49185;42.320;23.198;2023-04-10T04:30:54;94815.44;;;5.14;66.65
63097;BME280;49185;42.320;23.198;2023-04-10T04:33:19;94819.66;;;4.84;66.86
63097;BME280;49185;42.320;23.198;2023-04-10T04:35:45;94813.03;;;5.06;65.84
63097;BME280;49185;42.320;23.198;2023-04-10T04:38:10;94803.31;;;5.07;65.24
63097;BME280;49185;42.320;23.198;2023-04-10T04:40:36;94804.66;;;5.48;62.53
63097;BME280;49185;42.320;23.198;2023-04-10T04:43:01;94811.81;;;5.91;60.03
63097;BME280;49185;42.320;23.198;2023-04-10T04:45:26;94810.97;;;5.97;60.00
63097;BME280;49185;42.320;23.198;2023-04-10T04:47:52;94813.38;;;6.24;58.24
63097;BME280;49185;42.320;23.198;2023-04-10T04:50:17;94817.13;;;6.35;58.08
63097;BME280;49185;42.320;23.198;2023-04-10T04:52:43;94817.09;;;6.53;57.80
63097;BME280;49185;42.320;23.198;2023-04-10T04:55:08;94818.78;;;6.47;57.35
63097;BME280;49185;42.320;23.198;2023-04-10T04:57:34;94822.13;;;6.43;57.03
63097;BME280;49185;42.320;23.198;2023-04-10T04:59:59;94823.59;;;6.57;57.34
63097;BME280;49185;42.320;23.198;2023-04-10T05:02:25;94824.25;;;6.71;57.10
63097;BME280;49185;42.320;23.198;2023-04-10T05:04:50;94820.25;;;6.80;57.07
63097;BME280;49185;42.320;23.198;2023-04-10T05:07:15;94817.63;;;6.80;57.23
63097;BME280;49185;42.320;23.198;2023-04-10T05:09:41;94825.59;;;6.92;56.00
63097;BME280;49185;42.320;23.198;2023-04-10T05:12:06;94825.97;;;6.96;56.47
63097;BME280;49185;42.320;23.198;2023-04-10T05:14:32;94824.78;;;7.64;54.19
63097;BME280;49185;42.320;23.198;2023-04-10T05:16:57;94825.31;;;7.43;54.93
63097;BME280;49185;42.320;23.198;2023-04-10T05:19:23;94821.47;;;7.27;54.60
63097;BME280;49185;42.320;23.198;2023-04-10T05:21:48;94827.50;;;7.03;56.08
63097;BME280;49185;42.320;23.198;2023-04-10T05:24:14;94829.13;;;7.35;54.75
63097;BME280;49185;42.320;23.198;2023-04-10T05:26:39;94820.69;;;7.26;55.24
63097;BME280;49185;42.320;23.198;2023-04-10T05:29:04;94836.72;;;7.13;55.72
63097;BME280;49185;42.320;23.198;2023-04-10T05:31:30;94831.34;;;7.19;55.04
63097;BME280;49185;42.320;23.198;2023-04-10T05:33:55;94836.91;;;7.30;54.82
63097;BME280;49185;42.320;23.198;2023-04-10T05:36:21;94836.72;;;7.13;56.47
63097;BME280;49185;42.320;23.198;2023-04-10T05:38:46;94837.75;;;7.42;55.67
63097;BME280;49185;42.320;23.198;2023-04-10T05:41:11;94842.28;;;7.23;56.13
63097;BME280;49185;42.320;23.198;2023-04-10T05:43:37;94840.22;;;6.95;57.23
63097;BME280;49185;42.320;23.198;2023-04-10T05:46:02;94841.16;;;7.31;57.27
63097;BME280;49185;42.320;23.198;2023-04-10T05:48:28;94844.59;;;7.01;58.52
63097;BME280;49185;42.320;23.198;2023-04-10T05:50:53;94831.28;;;7.08;58.56
63097;BME280;49185;42.320;23.198;2023-04-10T05:53:19;94843.28;;;7.10;58.86
63097;BME280;49185;42.320;23.198;2023-04-10T05:55:48;94844.50;;;7.26;58.96
63097;BME280;49185;42.320;23.198;2023-04-10T05:58:14;94845.81;;;7.17;59.23
63097;BME280;49185;42.320;23.198;2023-04-10T06:00:39;94847.22;;;7.19;59.24
63097;BME280;49185;42.320;23.198;2023-04-10T06:03:05;94849.53;;;7.28;59.51
63097;BME280;49185;42.320;23.198;2023-04-10T06:05:30;94850.22;;;7.53;58.86
63097;BME280;49185;42.320;23.198;2023-04-10T06:07:55;94851.44;;;7.39;59.22
63097;BME280;49185;42.320;23.198;2023-04-10T06:10:21;94861.88;;;7.34;59.60
63097;BME280;49185;42.320;23.198;2023-04-10T06:12:46;94853.31;;;7.50;59.73
63097;BME280;49185;42.320;23.198;2023-04-10T06:15:11;94854.72;;;7.65;58.52
63097;BME280;49185;42.320;23.198;2023-04-10T06:17:41;94850.88;;;7.49;59.30
63097;BME280;49185;42.320;23.198;2023-04-10T06:20:07;94854.00;;;7.57;59.78
63097;BME280;49185;42.320;23.198;2023-04-10T06:22:33;94850.84;;;7.91;57.78
63097;BME280;49185;42.320;23.198;2023-04-10T06:24:58;94849.63;;;8.17;57.32
63097;BME280;49185;42.320;23.198;2023-04-10T06:27:23;94852.75;;;9.42;55.44
63097;BME280;49185;42.320;23.198;2023-04-10T06:29:49;94847.56;;;10.32;51.84
63097;BME280;49185;42.320;23.198;2023-04-10T06:32:14;94843.53;;;10.30;51.38
63097;BME280;49185;42.320;23.198;2023-04-10T06:34:40;94849.44;;;10.15;52.37
63097;BME280;49185;42.320;23.198;2023-04-10T06:37:05;94847.16;;;9.89;53.11
63097;BME280;49185;42.320;23.198;2023-04-10T06:39:31;94855.94;;;9.73;53.71
63097;BME280;49185;42.320;23.198;2023-04-10T06:41:56;94857.78;;;10.57;51.54
63097;BME280;49185;42.320;23.198;2023-04-10T06:44:21;94855.31;;;10.51;50.22
63097;BME280;49185;42.320;23.198;2023-04-10T06:46:47;94856.22;;;10.39;50.39
63097;BME280;49185;42.320;23.198;2023-04-10T06:49:12;94850.50;;;10.70;49.70
63097;BME280;49185;42.320;23.198;2023-04-10T06:51:38;94849.13;;;10.11;51.71
63097;BME280;49185;42.320;23.198;2023-04-10T06:54:03;94842.00;;;10.51;50.10
63097;BME280;49185;42.320;23.198;2023-04-10T06:56:29;94844.69;;;10.73;48.96
63097;BME280;49185;42.320;23.198;2023-04-10T06:58:54;94837.22;;;11.68;46.23
63097;BME280;49185;42.320;23.198;2023-04-10T07:01:19;94835.69;;;11.72;46.75
63097;BME280;49185;42.320;23.198;2023-04-10T07:03:45;94840.63;;;12.23;44.78
63097;BME280;49185;42.320;23.198;2023-04-10T07:06:10;94842.28;;;11.92;45.50
63097;BME280;49185;42.320;23.198;2023-04-10T07:08:36;94848.72;;;11.19;46.86
63097;BME280;49185;42.320;23.198;2023-04-10T07:11:01;94846.56;;;10.94;48.30
63097;BME280;49185;42.320;23.198;2023-04-10T07:13:27;94846.41;;;10.62;49.63
63097;BME280;49185;42.320;23.198;2023-04-10T07:15:52;94851.81;;;10.16;49.58
63097;BME280;49185;42.320;23.198;2023-04-10T07:18:18;94853.69;;;9.82;50.33
63097;BME280;49185;42.320;23.198;2023-04-10T07:20:43;94844.28;;;10.08;49.24
63097;BME280;49185;42.320;23.198;2023-04-10T07:23:08;94851.91;;;10.21;49.26
63097;BME280;49185;42.320;23.198;2023-04-10T07:25:34;94843.13;;;9.70;50.29
63097;BME280;49185;42.320;23.198;2023-04-10T07:27:59;94856.31;;;9.65;50.28
63097;BME280;49185;42.320;23.198;2023-04-10T07:30:25;94860.06;;;9.35;51.80
63097;BME280;49185;42.320;23.198;2023-04-10T07:32:50;94850.19;;;9.64;50.94
63097;BME280;49185;42.320;23.198;2023-04-10T07:35:16;94862.16;;;9.96;50.24
63097;BME280;49185;42.320;23.198;2023-04-10T07:37:41;94854.25;;;9.67;51.27
63097;BME280;49185;42.320;23.198;2023-04-10T07:40:07;94857.72;;;9.39;52.49
63097;BME280;49185;42.320;23.198;2023-04-10T07:42:32;94860.34;;;9.10;54.34
63097;BME280;49185;42.320;23.198;2023-04-10T07:44:58;94855.41;;;9.42;52.75
63097;BME280;49185;42.320;23.198;2023-04-10T07:47:23;94856.16;;;9.72;52.43
63097;BME280;49185;42.320;23.198;2023-04-10T07:49:49;94856.66;;;9.11;54.91
63097;BME280;49185;42.320;23.198;2023-04-10T07:52:14;94863.03;;;9.39;53.91
63097;BME280;49185;42.320;23.198;2023-04-10T07:54:39;94852.44;;;9.56;54.42
63097;BME280;49185;42.320;23.198;2023-04-10T07:57:05;94852.78;;;9.76;53.59
63097;BME280;49185;42.320;23.198;2023-04-10T07:59:30;94838.94;;;10.25;51.82
63097;BME280;49185;42.320;23.198;2023-04-10T08:01:56;94858.28;;;10.03;51.84
63097;BME280;49185;42.320;23.198;2023-04-10T08:04:21;94858.56;;;10.75;51.34
63097;BME280;49185;42.320;23.198;2023-04-10T08:06:47;94863.44;;;10.44;51.21
63097;BME280;49185;42.320;23.198;2023-04-10T08:09:12;94858.06;;;10.22;53.01
63097;BME280;49185;42.320;23.198;2023-04-10T08:11:38;94851.53;;;11.35;49.89
63097;BME280;49185;42.320;23.198;2023-04-10T08:14:03;94844.78;;;12.46;47.26
63097;BME280;49185;42.320;23.198;2023-04-10T08:16:31;94843.19;;;12.93;45.91
63097;BME280;49185;42.320;23.198;2023-04-10T08:18:58;94840.88;;;13.17;44.70
63097;BME280;49185;42.320;23.198;2023-04-10T08:21:24;94850.13;;;13.62;43.27
63097;BME280;49185;42.320;23.198;2023-04-10T08:23:52;94841.56;;;13.50;44.14
63097;BME280;49185;42.320;23.198;2023-04-10T08:26:18;94850.91;;;13.42;43.87
63097;BME280;49185;42.320;23.198;2023-04-10T08:28:43;94853.50;;;12.31;46.07
63097;BME280;49185;42.320;23.198;2023-04-10T08:31:08;94845.28;;;12.01;46.51
63097;BME280;49185;42.320;23.198;2023-04-10T08:33:34;94851.56;;;11.62;49.40
63097;BME280;49185;42.320;23.198;2023-04-10T08:35:59;94849.16;;;11.61;47.87
63097;BME280;49185;42.320;23.198;2023-04-10T08:38:25;94846.56;;;12.30;46.87
63097;BME280;49185;42.320;23.198;2023-04-10T08:40:50;94854.53;;;11.93;47.20
63097;BME280;49185;42.320;23.198;2023-04-10T08:43:16;94848.41;;;11.92;47.81
63097;BME280;49185;42.320;23.198;2023-04-10T08:45:41;94839.69;;;12.40;45.98
63097;BME280;49185;42.320;23.198;2023-04-10T08:48:09;94851.31;;;12.23;46.86
63097;BME280;49185;42.320;23.198;2023-04-10T08:50:40;94848.38;;;12.25;45.69
63097;BME280;49185;42.320;23.198;2023-04-10T08:53:13;94839.50;;;11.82;47.21
63097;BME280;49185;42.320;23.198;2023-04-10T08:55:40;94858.19;;;11.59;48.48
63097;BME280;49185;42.320;23.198;2023-04-10T08:58:06;94831.66;;;11.70;47.64
63097;BME280;49185;42.320;23.198;2023-04-10T09:00:33;94849.06;;;11.77;47.90
63097;BME280;49185;42.320;23.198;2023-04-10T09:02:59;94848.25;;;12.04;48.20
63097;BME280;49185;42.320;23.198;2023-04-10T09:05:28;94838.72;;;12.56;44.91
63097;BME280;49185;42.320;23.198;2023-04-10T09:07:54;94839.53;;;11.59;48.40
63097;BME280;49185;42.320;23.198;2023-04-10T09:10:19;94843.19;;;12.45;46.25
63097;BME280;49185;42.320;23.198;2023-04-10T09:12:46;94840.19;;;12.79;44.98
63097;BME280;49185;42.320;23.198;2023-04-10T09:15:12;94838.44;;;12.52;45.48
63097;BME280;49185;42.320;23.198;2023-04-10T09:17:53;94845.84;;;11.48;48.50
63097;BME280;49185;42.320;23.198;2023-04-10T09:20:21;94843.47;;;11.52;48.74
63097;BME280;49185;42.320;23.198;2023-04-10T09:22:46;94829.75;;;11.65;47.21
63097;BME280;49185;42.320;23.198;2023-04-10T09:25:29;94840.56;;;11.04;49.16
63097;BME280;49185;42.320;23.198;2023-04-10T09:28:04;94838.09;;;11.47;49.41
63097;BME280;49185;42.320;23.198;2023-04-10T09:30:35;94847.34;;;11.66;48.38
63097;BME280;49185;42.320;23.198;2023-04-10T09:33:00;94834.69;;;11.84;47.94
63097;BME280;49185;42.320;23.198;2023-04-10T09:35:37;94830.00;;;12.28;47.36
63097;BME280;49185;42.320;23.198;2023-04-10T09:38:13;94825.47;;;12.24;46.64
63097;BME280;49185;42.320;23.198;2023-04-10T09:40:39;94826.16;;;13.09;45.67
63097;BME280;49185;42.320;23.198;2023-04-10T09:43:22;94826.03;;;13.47;44.73
63097;BME280;49185;42.320;23.198;2023-04-10T09:45:49;94832.53;;;12.93;46.02
63097;BME280;49185;42.320;23.198;2023-04-10T09:48:14;94821.66;;;13.20;45.40
63097;BME280;49185;42.320;23.198;2023-04-10T09:50:40;94825.25;;;13.52;45.72
63097;BME280;49185;42.320;23.198;2023-04-10T09:53:24;94834.59;;;12.81;46.69
63097;BME280;49185;42.320;23.198;2023-04-10T09:55:49;94828.88;;;11.87;49.33
63097;BME280;49185;42.320;23.198;2023-04-10T09:58:16;94835.38;;;11.42;50.56
63097;BME280;49185;42.320;23.198;2023-04-10T10:00:43;94833.75;;;11.95;50.14
63097;BME280;49185;42.320;23.198;2023-04-10T10:03:14;94833.63;;;12.12;48.26
63097;BME280;49185;42.320;23.198;2023-04-10T10:05:44;94828.28;;;12.49;47.98
63097;BME280;49185;42.320;23.198;2023-04-10T10:08:11;94831.41;;;12.04;47.77
63097;BME280;49185;42.320;23.198;2023-04-10T10:11:03;94839.28;;;11.07;50.36
63097;BME280;49185;42.320;23.198;2023-04-10T10:13:39;94825.22;;;10.89;50.28
63097;BME280;49185;42.320;23.198;2023-04-10T10:16:20;94835.59;;;10.69;52.63
63097;BME280;49185;42.320;23.198;2023-04-10T10:19:17;94837.88;;;10.60;54.20
63097;BME280;49185;42.320;23.198;2023-04-10T10:21:43;94841.09;;;11.28;52.50
63097;BME280;49185;42.320;23.198;2023-04-10T10:24:09;94837.13;;;11.31;53.54
63097;BME280;49185;42.320;23.198;2023-04-10T10:26:37;94833.28;;;11.21;53.57
63097;BME280;49185;42.320;23.198;2023-04-10T10:29:05;94831.97;;;11.46;52.15
63097;BME280;49185;42.320;23.198;2023-04-10T10:31:32;94832.03;;;11.29;52.15
63097;BME280;49185;42.320;23.198;2023-04-10T10:33:59;94821.78;;;11.70;52.74
63097;BME280;49185;42.320;23.198;2023-04-10T10:36:25;94814.22;;;11.89;51.51
63097;BME280;49185;42.320;23.198;2023-04-10T10:39:28;94817.25;;;12.83;49.17
63097;BME280;49185;42.320;23.198;2023-04-10T10:47:27;94793.28;;;12.99;46.37
63097;BME280;49185;42.320;23.198;2023-04-10T10:52:46;94793.19;;;13.57;44.79
63097;BME280;49185;42.320;23.198;2023-04-10T10:57:47;94782.75;;;14.27;44.81
63097;BME280;49185;42.320;23.198;2023-04-10T11:00:14;94774.16;;;14.40;44.50
63097;BME280;49185;42.320;23.198;2023-04-10T11:02:40;94778.38;;;14.77;43.62
63097;BME280;49185;42.320;23.198;2023-04-10T11:05:06;94766.03;;;14.81;41.37
63097;BME280;49185;42.320;23.198;2023-04-10T11:13:24;94754.50;;;14.86;41.28
63097;BME280;49185;42.320;23.198;2023-04-10T11:15:50;94744.69;;;14.51;40.93
63097;BME280;49185;42.320;23.198;2023-04-10T11:18:16;94749.56;;;15.53;38.89
63097;BME280;49185;42.320;23.198;2023-04-10T11:21:10;94734.31;;;15.88;37.41
63097;BME280;49185;42.320;23.198;2023-04-10T11:23:37;94743.28;;;14.74;39.48
63097;BME280;49185;42.320;23.198;2023-04-10T11:26:03;94742.41;;;15.38;38.31
63097;BME280;49185;42.320;23.198;2023-04-10T11:31:20;94748.28;;;15.46;38.45
63097;BME280;49185;42.320;23.198;2023-04-10T11:36:17;94760.84;;;14.15;43.88
63097;BME280;49185;42.320;23.198;2023-04-10T11:39:08;94764.03;;;13.40;46.85
63097;BME280;49185;42.320;23.198;2023-04-10T11:41:36;94753.38;;;13.65;46.18
63097;BME280;49185;42.320;23.198;2023-04-10T11:44:04;94750.59;;;13.14;47.04
63097;BME280;49185;42.320;23.198;2023-04-10T11:46:30;94750.97;;;13.64;46.29
63097;BME280;49185;42.320;23.198;2023-04-10T11:49:02;94737.31;;;13.96;43.78
63097;BME280;49185;42.320;23.198;2023-04-10T11:51:29;94742.03;;;14.35;42.39
63097;BME280;49185;42.320;23.198;2023-04-10T11:56:30;94734.00;;;14.35;42.32
63097;BME280;49185;42.320;23.198;2023-04-10T11:58:55;94728.22;;;13.97;41.74
63097;BME280;49185;42.320;23.198;2023-04-10T12:01:21;94728.66;;;14.35;41.84
63097;BME280;49185;42.320;23.198;2023-04-10T12:03:47;94722.25;;;14.36;42.96
63097;BME280;49185;42.320;23.198;2023-04-10T12:06:14;94722.59;;;13.83;41.83
63097;BME280;49185;42.320;23.198;2023-04-10T12:08:42;94721.03;;;13.67;42.52
63097;BME280;49185;42.320;23.198;2023-04-10T12:11:09;94710.13;;;12.69;43.32
63097;BME280;49185;42.320;23.198;2023-04-10T12:13:35;94716.53;;;12.68;43.28
63097;BME280;49185;42.320;23.198;2023-04-10T12:16:03;94708.84;;;12.77;44.11
63097;BME280;49185;42.320;23.198;2023-04-10T12:18:30;94703.47;;;12.09;45.94
63097;BME280;49185;42.320;23.198;2023-04-10T12:20:56;94708.19;;;12.49;45.84
63097;BME280;49185;42.320;23.198;2023-04-10T12:23:25;94710.81;;;12.39;46.41
63097;BME280;49185;42.320;23.198;2023-04-10T12:25:52;94705.47;;;12.39;45.23
63097;BME280;49185;42.320;23.198;2023-04-10T12:28:21;94712.22;;;11.62;47.04
63097;BME280;49185;42.320;23.198;2023-04-10T12:30:51;94720.53;;;11.38;48.48
63097;BME280;49185;42.320;23.198;2023-04-10T12:33:21;94719.28;;;11.46;48.48
63097;BME280;49185;42.320;23.198;2023-04-10T12:35:47;94711.88;;;11.26;50.57
63097;BME280;49185;42.320;23.198;2023-04-10T12:38:12;94706.78;;;11.51;50.18
63097;BME280;49185;42.320;23.198;2023-04-10T12:40:38;94702.19;;;12.17;49.00
63097;BME280;49185;42.320;23.198;2023-04-10T12:43:44;94691.22;;;12.86;47.70
63097;BME280;49185;42.320;23.198;2023-04-10T12:46:09;94691.72;;;12.68;48.99
63097;BME280;49185;42.320;23.198;2023-04-10T12:48:46;94684.13;;;12.39;47.03
63097;BME280;49185;42.320;23.198;2023-04-10T12:51:11;94675.47;;;12.85;45.58
63097;BME280;49185;42.320;23.198;2023-04-10T12:53:46;94665.94;;;13.45;45.57
63097;BME280;49185;42.320;23.198;2023-04-10T12:56:12;94672.03;;;13.15;45.82
63097;BME280;49185;42.320;23.198;2023-04-10T12:58:38;94665.53;;;14.34;41.29
63097;BME280;49185;42.320;23.198;2023-04-10T13:01:06;94672.59;;;13.84;42.07
63097;BME280;49185;42.320;23.198;2023-04-10T13:03:37;94669.16;;;13.42;43.82
63097;BME280;49185;42.320;23.198;2023-04-10T13:06:06;94682.16;;;12.87;46.90
63097;BME280;49185;42.320;23.198;2023-04-10T13:08:33;94684.22;;;11.27;55.93
63097;BME280;49185;42.320;23.198;2023-04-10T13:10:59;94701.03;;;9.73;64.91
63097;BME280;49185;42.320;23.198;2023-04-10T13:13:24;94690.72;;;8.91;67.80
63097;BME280;49185;42.320;23.198;2023-04-10T13:15:49;94698.34;;;8.88;69.74
63097;BME280;49185;42.320;23.198;2023-04-10T13:18:15;94687.78;;;9.22;70.31
63097;BME280;49185;42.320;23.198;2023-04-10T13:20:40;94685.41;;;9.76;67.05
63097;BME280;49185;42.320;23.198;2023-04-10T13:23:06;94675.81;;;10.14;65.81
63097;BME280;49185;42.320;23.198;2023-04-10T13:25:33;94677.03;;;10.29;64.36
63097;BME280;49185;42.320;23.198;2023-04-10T13:28:00;94667.78;;;10.75;61.60
63097;BME280;49185;42.320;23.198;2023-04-10T13:30:26;94681.78;;;10.43;60.36
63097;BME280;49185;42.320;23.198;2023-04-10T13:32:52;94670.19;;;10.55;56.66
63097;BME280;49185;42.320;23.198;2023-04-10T13:35:17;94659.84;;;10.80;57.81